sensor_id;sensor_type;location;lat;lon;timestamp;P1;durP1;ratioP1;P2;durP2;ratioP2
22660;SDS011;11497;52.222;21.246;2022-12-11T00:00:54;74.97;;;27.33;;
22660;SDS011;11497;52.222;21.246;2022-12-11T00:03:41;64.03;;;25.17;;
22660;SDS011;11497;52.222;21.246;2022-12-11T00:06:10;65.68;;;26.33;;
22660;SDS011;11497;52.222;21.246;2022-12-11T00:08:40;68.32;;;26.08;;
22660;SDS011;11497;52.222;21.246;2022-12-11T00:11:09;72.72;;;26.45;;
22660;SDS011;11497;52.222;21.246;2022-12-11T00:13:39;63.67;;;25.40;;
22660;SDS011;11497;52.222;21.246;2022-12-11T00:16:07;67.88;;;25.98;;
22660;SDS011;11497;52.222;21.246;2022-12-11T00:18:35;73.28;;;25.55;;
22660;SDS011;11497;52.222;21.246;2022-12-11T00:21:04;67.30;;;25.08;;
22660;SDS011;11497;52.222;21.246;2022-12-11T00:23:34;67.22;;;22.27;;
22660;SDS011;11497;52.222;21.246;2022-12-11T00:26:09;60.50;;;23.92;;
22660;SDS011;11497;52.222;21.246;2022-12-11T00:28:39;59.95;;;22.30;;
22660;SDS011;11497;52.222;21.246;2022-12-11T00:31:09;69.05;;;24.35;;
22660;SDS011;11497;52.222;21.246;2022-12-11T00:33:42;62.92;;;24.73;;
22660;SDS011;11497;52.222;21.246;2022-12-11T00:36:11;59.20;;;23.83;;
22660;SDS011;11497;52.222;21.246;2022-12-11T00:38:40;63.17;;;24.42;;
22660;SDS011;11497;52.222;21.246;2022-12-11T00:41:09;62.13;;;23.13;;
22660;SDS011;11497;52.222;21.246;2022-12-11T00:43:38;58.38;;;23.25;;
22660;SDS011;11497;52.222;21.246;2022-12-11T00:46:06;54.08;;;21.20;;
22660;SDS011;11497;52.222;21.246;2022-12-11T00:48:34;51.92;;;21.70;;
22660;SDS011;11497;52.222;21.246;2022-12-11T00:51:02;62.78;;;24.17;;
22660;SDS011;11497;52.222;21.246;2022-12-11T00:53:30;56.08;;;22.65;;
22660;SDS011;11497;52.222;21.246;2022-12-11T00:55:59;61.55;;;22.30;;
22660;SDS011;11497;52.222;21.246;2022-12-11T00:58:27;61.33;;;22.20;;
22660;SDS011;11497;52.222;21.246;2022-12-11T01:00:54;59.13;;;21.55;;
22660;SDS011;11497;52.222;21.246;2022-12-11T01:03:43;69.65;;;25.33;;
22660;SDS011;11497;52.222;21.246;2022-12-11T01:06:14;69.05;;;25.63;;
22660;SDS011;11497;52.222;21.246;2022-12-11T01:08:44;70.90;;;24.83;;
22660;SDS011;11497;52.222;21.246;2022-12-11T01:11:13;76.90;;;26.75;;
22660;SDS011;11497;52.222;21.246;2022-12-11T01:13:42;82.70;;;28.67;;
22660;SDS011;11497;52.222;21.246;2022-12-11T01:16:12;76.60;;;28.55;;
22660;SDS011;11497;52.222;21.246;2022-12-11T01:18:42;83.65;;;28.02;;
22660;SDS011;11497;52.222;21.246;2022-12-11T01:21:11;72.85;;;25.58;;
22660;SDS011;11497;52.222;21.246;2022-12-11T01:23:39;77.07;;;27.58;;
22660;SDS011;11497;52.222;21.246;2022-12-11T01:26:08;69.75;;;24.33;;
22660;SDS011;11497;52.222;21.246;2022-12-11T01:28:38;81.53;;;26.55;;
22660;SDS011;11497;52.222;21.246;2022-12-11T01:31:11;70.47;;;24.77;;
22660;SDS011;11497;52.222;21.246;2022-12-11T01:33:40;65.10;;;23.83;;
22660;SDS011;11497;52.222;21.246;2022-12-11T01:36:09;72.63;;;25.42;;
22660;SDS011;11497;52.222;21.246;2022-12-11T01:38:41;67.07;;;24.48;;
22660;SDS011;11497;52.222;21.246;2022-12-11T01:41:10;71.35;;;23.17;;
22660;SDS011;11497;52.222;21.246;2022-12-11T01:43:54;70.68;;;24.15;;
22660;SDS011;11497;52.222;21.246;2022-12-11T01:46:22;76.35;;;25.15;;
22660;SDS011;11497;52.222;21.246;2022-12-11T01:48:51;83.40;;;26.05;;
22660;SDS011;11497;52.222;21.246;2022-12-11T01:51:19;87.85;;;25.50;;
22660;SDS011;11497;52.222;21.246;2022-12-11T01:53:50;75.13;;;26.48;;
22660;SDS011;11497;52.222;21.246;2022-12-11T01:56:24;73.07;;;24.33;;
22660;SDS011;11497;52.222;21.246;2022-12-11T01:58:54;76.88;;;25.27;;
22660;SDS011;11497;52.222;21.246;2022-12-11T02:01:45;77.22;;;25.08;;
22660;SDS011;11497;52.222;21.246;2022-12-11T02:04:23;69.35;;;23.95;;
22660;SDS011;11497;52.222;21.246;2022-12-11T02:06:52;78.90;;;25.42;;
22660;SDS011;11497;52.222;21.246;2022-12-11T02:09:21;73.00;;;25.55;;
22660;SDS011;11497;52.222;21.246;2022-12-11T02:14:40;68.00;;;23.23;;
22660;SDS011;11497;52.222;21.246;2022-12-11T02:17:29;67.30;;;21.42;;
22660;SDS011;11497;52.222;21.246;2022-12-11T02:26:24;58.22;;;21.92;;
22660;SDS011;11497;52.222;21.246;2022-12-11T02:29:07;64.35;;;21.20;;
22660;SDS011;11497;52.222;21.246;2022-12-11T02:32:05;67.40;;;22.02;;
22660;SDS011;11497;52.222;21.246;2022-12-11T02:34:43;64.05;;;21.80;;
22660;SDS011;11497;52.222;21.246;2022-12-11T02:37:22;54.72;;;20.85;;
22660;SDS011;11497;52.222;21.246;2022-12-11T02:39:54;64.53;;;21.73;;
22660;SDS011;11497;52.222;21.246;2022-12-11T02:42:24;55.30;;;19.15;;
22660;SDS011;11497;52.222;21.246;2022-12-11T02:44:56;57.30;;;20.33;;
22660;SDS011;11497;52.222;21.246;2022-12-11T02:47:27;65.43;;;21.10;;
22660;SDS011;11497;52.222;21.246;2022-12-11T02:49:57;66.40;;;22.17;;
22660;SDS011;11497;52.222;21.246;2022-12-11T02:52:28;70.90;;;24.10;;
22660;SDS011;11497;52.222;21.246;2022-12-11T02:54:58;69.38;;;24.20;;
22660;SDS011;11497;52.222;21.246;2022-12-11T02:57:30;71.00;;;24.52;;
22660;SDS011;11497;52.222;21.246;2022-12-11T03:00:10;64.80;;;22.85;;
22660;SDS011;11497;52.222;21.246;2022-12-11T03:02:38;66.68;;;22.55;;
22660;SDS011;11497;52.222;21.246;2022-12-11T03:05:09;57.83;;;21.02;;
22660;SDS011;11497;52.222;21.246;2022-12-11T03:07:39;57.83;;;21.85;;
22660;SDS011;11497;52.222;21.246;2022-12-11T03:10:11;54.90;;;20.10;;
22660;SDS011;11497;52.222;21.246;2022-12-11T03:12:42;60.05;;;21.38;;
22660;SDS011;11497;52.222;21.246;2022-12-11T03:15:19;57.88;;;22.35;;
22660;SDS011;11497;52.222;21.246;2022-12-11T03:18:08;58.92;;;19.35;;
22660;SDS011;11497;52.222;21.246;2022-12-11T03:21:08;59.25;;;20.63;;
22660;SDS011;11497;52.222;21.246;2022-12-11T03:26:38;58.80;;;21.20;;
22660;SDS011;11497;52.222;21.246;2022-12-11T03:29:24;58.85;;;21.17;;
22660;SDS011;11497;52.222;21.246;2022-12-11T03:32:11;53.63;;;20.00;;
22660;SDS011;11497;52.222;21.246;2022-12-11T03:34:56;59.47;;;21.55;;
22660;SDS011;11497;52.222;21.246;2022-12-11T03:37:35;63.30;;;21.25;;
22660;SDS011;11497;52.222;21.246;2022-12-11T03:40:08;65.40;;;22.40;;
22660;SDS011;11497;52.222;21.246;2022-12-11T03:42:40;56.05;;;17.95;;
22660;SDS011;11497;52.222;21.246;2022-12-11T03:45:10;57.53;;;19.50;;
22660;SDS011;11497;52.222;21.246;2022-12-11T03:47:40;63.40;;;22.85;;
22660;SDS011;11497;52.222;21.246;2022-12-11T03:50:11;64.13;;;22.50;;
22660;SDS011;11497;52.222;21.246;2022-12-11T03:52:43;63.92;;;23.92;;
22660;SDS011;11497;52.222;21.246;2022-12-11T03:55:13;69.45;;;24.23;;
22660;SDS011;11497;52.222;21.246;2022-12-11T03:57:43;64.75;;;23.42;;
22660;SDS011;11497;52.222;21.246;2022-12-11T04:00:12;62.30;;;21.92;;
22660;SDS011;11497;52.222;21.246;2022-12-11T04:02:42;60.17;;;21.80;;
22660;SDS011;11497;52.222;21.246;2022-12-11T04:05:11;60.75;;;21.98;;
22660;SDS011;11497;52.222;21.246;2022-12-11T04:07:39;59.95;;;21.38;;
22660;SDS011;11497;52.222;21.246;2022-12-11T04:10:07;65.90;;;21.60;;
22660;SDS011;11497;52.222;21.246;2022-12-11T04:12:35;68.15;;;24.08;;
22660;SDS011;11497;52.222;21.246;2022-12-11T04:15:03;67.40;;;23.58;;
22660;SDS011;11497;52.222;21.246;2022-12-11T04:17:33;68.10;;;22.70;;
22660;SDS011;11497;52.222;21.246;2022-12-11T04:20:21;71.43;;;23.10;;
22660;SDS011;11497;52.222;21.246;2022-12-11T04:23:14;62.47;;;24.13;;
22660;SDS011;11497;52.222;21.246;2022-12-11T04:26:06;64.80;;;24.65;;
22660;SDS011;11497;52.222;21.246;2022-12-11T04:28:35;72.95;;;24.83;;
22660;SDS011;11497;52.222;21.246;2022-12-11T04:31:03;64.10;;;23.30;;
22660;SDS011;11497;52.222;21.246;2022-12-11T04:33:32;71.70;;;22.35;;
22660;SDS011;11497;52.222;21.246;2022-12-11T04:36:00;64.88;;;22.90;;
22660;SDS011;11497;52.222;21.246;2022-12-11T04:38:27;59.10;;;21.08;;
22660;SDS011;11497;52.222;21.246;2022-12-11T04:40:56;62.25;;;21.92;;
22660;SDS011;11497;52.222;21.246;2022-12-11T04:43:43;63.42;;;21.70;;
22660;SDS011;11497;52.222;21.246;2022-12-11T04:46:12;65.28;;;23.35;;
22660;SDS011;11497;52.222;21.246;2022-12-11T04:48:42;63.75;;;22.00;;
22660;SDS011;11497;52.222;21.246;2022-12-11T04:51:10;54.35;;;21.08;;
22660;SDS011;11497;52.222;21.246;2022-12-11T04:53:39;57.20;;;21.23;;
22660;SDS011;11497;52.222;21.246;2022-12-11T04:56:08;64.22;;;22.63;;
22660;SDS011;11497;52.222;21.246;2022-12-11T04:58:38;58.33;;;21.80;;
22660;SDS011;11497;52.222;21.246;2022-12-11T05:01:08;57.60;;;21.83;;
22660;SDS011;11497;52.222;21.246;2022-12-11T05:03:43;63.30;;;23.33;;
22660;SDS011;11497;52.222;21.246;2022-12-11T05:06:12;56.28;;;21.83;;
22660;SDS011;11497;52.222;21.246;2022-12-11T05:08:41;58.55;;;21.33;;
22660;SDS011;11497;52.222;21.246;2022-12-11T05:11:11;57.15;;;21.20;;
22660;SDS011;11497;52.222;21.246;2022-12-11T05:13:40;56.75;;;20.35;;
22660;SDS011;11497;52.222;21.246;2022-12-11T05:16:10;51.00;;;19.73;;
22660;SDS011;11497;52.222;21.246;2022-12-11T05:18:40;53.05;;;19.63;;
22660;SDS011;11497;52.222;21.246;2022-12-11T05:21:10;53.95;;;20.63;;
22660;SDS011;11497;52.222;21.246;2022-12-11T05:23:39;51.83;;;18.38;;
22660;SDS011;11497;52.222;21.246;2022-12-11T05:26:10;55.97;;;20.95;;
22660;SDS011;11497;52.222;21.246;2022-12-11T05:28:45;48.78;;;18.00;;
22660;SDS011;11497;52.222;21.246;2022-12-11T05:31:17;58.45;;;20.80;;
22660;SDS011;11497;52.222;21.246;2022-12-11T05:33:49;54.10;;;20.35;;
22660;SDS011;11497;52.222;21.246;2022-12-11T05:36:26;49.05;;;19.33;;
22660;SDS011;11497;52.222;21.246;2022-12-11T05:38:55;54.72;;;20.15;;
22660;SDS011;11497;52.222;21.246;2022-12-11T05:41:25;54.80;;;20.25;;
22660;SDS011;11497;52.222;21.246;2022-12-11T05:43:54;46.55;;;18.45;;
22660;SDS011;11497;52.222;21.246;2022-12-11T05:46:26;51.35;;;19.25;;
22660;SDS011;11497;52.222;21.246;2022-12-11T05:48:58;32.28;;;15.65;;
22660;SDS011;11497;52.222;21.246;2022-12-11T05:51:27;44.88;;;17.08;;
22660;SDS011;11497;52.222;21.246;2022-12-11T05:53:56;49.85;;;20.70;;
22660;SDS011;11497;52.222;21.246;2022-12-11T05:56:25;47.05;;;17.52;;
22660;SDS011;11497;52.222;21.246;2022-12-11T05:58:55;46.00;;;17.75;;
22660;SDS011;11497;52.222;21.246;2022-12-11T06:01:25;50.65;;;19.65;;
22660;SDS011;11497;52.222;21.246;2022-12-11T06:03:56;45.97;;;18.90;;
22660;SDS011;11497;52.222;21.246;2022-12-11T06:06:25;47.25;;;18.38;;
22660;SDS011;11497;52.222;21.246;2022-12-11T06:08:54;42.00;;;17.80;;
22660;SDS011;11497;52.222;21.246;2022-12-11T06:11:24;42.45;;;17.98;;
22660;SDS011;11497;52.222;21.246;2022-12-11T06:13:55;43.20;;;18.73;;
22660;SDS011;11497;52.222;21.246;2022-12-11T06:16:23;45.70;;;17.88;;
22660;SDS011;11497;52.222;21.246;2022-12-11T06:18:51;46.38;;;17.13;;
22660;SDS011;11497;52.222;21.246;2022-12-11T06:21:25;47.72;;;18.92;;
22660;SDS011;11497;52.222;21.246;2022-12-11T06:23:57;45.92;;;18.90;;
22660;SDS011;11497;52.222;21.246;2022-12-11T06:26:26;42.55;;;18.48;;
22660;SDS011;11497;52.222;21.246;2022-12-11T06:28:55;42.70;;;17.75;;
22660;SDS011;11497;52.222;21.246;2022-12-11T06:31:23;48.03;;;19.08;;
22660;SDS011;11497;52.222;21.246;2022-12-11T06:33:50;40.75;;;18.33;;
22660;SDS011;11497;52.222;21.246;2022-12-11T06:36:19;45.75;;;19.00;;
22660;SDS011;11497;52.222;21.246;2022-12-11T06:38:48;44.10;;;17.52;;
22660;SDS011;11497;52.222;21.246;2022-12-11T06:41:16;43.22;;;18.25;;
22660;SDS011;11497;52.222;21.246;2022-12-11T06:43:44;42.53;;;18.17;;
22660;SDS011;11497;52.222;21.246;2022-12-11T06:46:13;43.13;;;18.55;;
22660;SDS011;11497;52.222;21.246;2022-12-11T06:48:44;43.28;;;18.90;;
22660;SDS011;11497;52.222;21.246;2022-12-11T06:51:13;41.70;;;15.85;;
22660;SDS011;11497;52.222;21.246;2022-12-11T06:53:44;41.00;;;17.58;;
22660;SDS011;11497;52.222;21.246;2022-12-11T06:56:16;38.60;;;15.35;;
22660;SDS011;11497;52.222;21.246;2022-12-11T06:58:44;39.33;;;15.93;;
22660;SDS011;11497;52.222;21.246;2022-12-11T07:01:14;38.55;;;15.15;;
22660;SDS011;11497;52.222;21.246;2022-12-11T07:03:47;38.60;;;16.73;;
22660;SDS011;11497;52.222;21.246;2022-12-11T07:06:18;40.63;;;16.20;;
22660;SDS011;11497;52.222;21.246;2022-12-11T07:08:45;38.00;;;16.83;;
22660;SDS011;11497;52.222;21.246;2022-12-11T07:11:14;39.67;;;16.83;;
22660;SDS011;11497;52.222;21.246;2022-12-11T07:13:43;40.42;;;16.80;;
22660;SDS011;11497;52.222;21.246;2022-12-11T07:16:12;40.85;;;18.50;;
22660;SDS011;11497;52.222;21.246;2022-12-11T07:18:42;37.05;;;15.13;;
22660;SDS011;11497;52.222;21.246;2022-12-11T07:23:43;35.60;;;15.95;;
22660;SDS011;11497;52.222;21.246;2022-12-11T07:26:12;37.10;;;15.80;;
22660;SDS011;11497;52.222;21.246;2022-12-11T07:28:42;38.00;;;16.23;;
22660;SDS011;11497;52.222;21.246;2022-12-11T07:31:12;37.13;;;15.93;;
22660;SDS011;11497;52.222;21.246;2022-12-11T07:33:41;35.08;;;16.08;;
22660;SDS011;11497;52.222;21.246;2022-12-11T07:36:10;33.97;;;14.75;;
22660;SDS011;11497;52.222;21.246;2022-12-11T07:38:40;33.38;;;14.48;;
22660;SDS011;11497;52.222;21.246;2022-12-11T07:41:09;29.45;;;13.95;;
22660;SDS011;11497;52.222;21.246;2022-12-11T07:43:38;35.50;;;15.65;;
22660;SDS011;11497;52.222;21.246;2022-12-11T07:46:11;35.30;;;14.80;;
22660;SDS011;11497;52.222;21.246;2022-12-11T07:48:45;38.15;;;15.32;;
22660;SDS011;11497;52.222;21.246;2022-12-11T07:51:15;39.33;;;15.15;;
22660;SDS011;11497;52.222;21.246;2022-12-11T07:53:51;32.38;;;13.63;;
22660;SDS011;11497;52.222;21.246;2022-12-11T07:56:21;34.80;;;15.10;;
22660;SDS011;11497;52.222;21.246;2022-12-11T07:58:49;36.85;;;14.90;;
22660;SDS011;11497;52.222;21.246;2022-12-11T08:01:22;32.65;;;13.18;;
22660;SDS011;11497;52.222;21.246;2022-12-11T08:03:52;39.63;;;14.93;;
22660;SDS011;11497;52.222;21.246;2022-12-11T08:06:25;37.30;;;14.70;;
22660;SDS011;11497;52.222;21.246;2022-12-11T08:08:55;32.28;;;14.40;;
22660;SDS011;11497;52.222;21.246;2022-12-11T08:11:25;33.10;;;13.75;;
22660;SDS011;11497;52.222;21.246;2022-12-11T08:13:54;35.55;;;14.73;;
22660;SDS011;11497;52.222;21.246;2022-12-11T08:16:25;33.13;;;14.40;;
22660;SDS011;11497;52.222;21.246;2022-12-11T08:18:53;32.53;;;14.73;;
22660;SDS011;11497;52.222;21.246;2022-12-11T08:21:23;34.78;;;13.85;;
22660;SDS011;11497;52.222;21.246;2022-12-11T08:23:53;32.28;;;14.18;;
22660;SDS011;11497;52.222;21.246;2022-12-11T08:26:24;37.35;;;16.23;;
22660;SDS011;11497;52.222;21.246;2022-12-11T08:28:54;39.55;;;16.00;;
22660;SDS011;11497;52.222;21.246;2022-12-11T08:31:23;39.05;;;15.95;;
22660;SDS011;11497;52.222;21.246;2022-12-11T08:33:51;33.15;;;13.98;;
22660;SDS011;11497;52.222;21.246;2022-12-11T08:36:21;37.78;;;16.63;;
22660;SDS011;11497;52.222;21.246;2022-12-11T08:38:50;37.05;;;15.35;;
22660;SDS011;11497;52.222;21.246;2022-12-11T08:41:28;36.78;;;15.65;;
22660;SDS011;11497;52.222;21.246;2022-12-11T08:43:57;42.13;;;15.63;;
22660;SDS011;11497;52.222;21.246;2022-12-11T08:46:27;38.33;;;16.63;;
22660;SDS011;11497;52.222;21.246;2022-12-11T08:48:57;39.38;;;15.85;;
22660;SDS011;11497;52.222;21.246;2022-12-11T08:51:27;38.72;;;15.15;;
22660;SDS011;11497;52.222;21.246;2022-12-11T08:53:57;35.38;;;15.05;;
22660;SDS011;11497;52.222;21.246;2022-12-11T08:56:27;36.92;;;15.10;;
22660;SDS011;11497;52.222;21.246;2022-12-11T08:58:57;34.22;;;16.15;;
22660;SDS011;11497;52.222;21.246;2022-12-11T09:01:27;36.65;;;14.43;;
22660;SDS011;11497;52.222;21.246;2022-12-11T09:03:55;36.65;;;14.90;;
22660;SDS011;11497;52.222;21.246;2022-12-11T09:06:24;37.58;;;15.85;;
22660;SDS011;11497;52.222;21.246;2022-12-11T09:08:53;34.30;;;14.95;;
22660;SDS011;11497;52.222;21.246;2022-12-11T09:11:25;35.88;;;15.10;;
22660;SDS011;11497;52.222;21.246;2022-12-11T09:13:56;36.38;;;15.45;;
22660;SDS011;11497;52.222;21.246;2022-12-11T09:16:32;37.42;;;16.05;;
22660;SDS011;11497;52.222;21.246;2022-12-11T09:19:03;40.35;;;16.00;;
22660;SDS011;11497;52.222;21.246;2022-12-11T09:21:32;37.92;;;15.55;;
22660;SDS011;11497;52.222;21.246;2022-12-11T09:24:00;40.97;;;15.93;;
22660;SDS011;11497;52.222;21.246;2022-12-11T09:26:28;40.60;;;17.17;;
22660;SDS011;11497;52.222;21.246;2022-12-11T09:28:57;36.03;;;15.57;;
22660;SDS011;11497;52.222;21.246;2022-12-11T09:31:29;37.92;;;15.02;;
22660;SDS011;11497;52.222;21.246;2022-12-11T09:34:00;40.55;;;16.98;;
22660;SDS011;11497;52.222;21.246;2022-12-11T09:36:30;38.53;;;16.88;;
22660;SDS011;11497;52.222;21.246;2022-12-11T09:38:59;38.00;;;17.55;;
22660;SDS011;11497;52.222;21.246;2022-12-11T09:44:12;42.25;;;18.05;;
22660;SDS011;11497;52.222;21.246;2022-12-11T09:49:37;41.03;;;16.70;;
22660;SDS011;11497;52.222;21.246;2022-12-11T09:52:43;45.70;;;18.92;;
22660;SDS011;11497;52.222;21.246;2022-12-11T09:55:22;38.20;;;15.75;;
22660;SDS011;11497;52.222;21.246;2022-12-11T10:06:16;37.38;;;16.77;;
22660;SDS011;11497;52.222;21.246;2022-12-11T10:14:27;35.05;;;15.20;;
22660;SDS011;11497;52.222;21.246;2022-12-11T10:17:17;34.30;;;15.07;;
22660;SDS011;11497;52.222;21.246;2022-12-11T10:22:30;36.53;;;16.02;;
22660;SDS011;11497;52.222;21.246;2022-12-11T10:25:01;33.03;;;15.90;;
22660;SDS011;11497;52.222;21.246;2022-12-11T10:27:39;37.72;;;16.30;;
22660;SDS011;11497;52.222;21.246;2022-12-11T10:30:14;38.30;;;16.88;;
22660;SDS011;11497;52.222;21.246;2022-12-11T10:35:43;39.60;;;17.02;;
22660;SDS011;11497;52.222;21.246;2022-12-11T10:38:30;38.83;;;16.02;;
22660;SDS011;11497;52.222;21.246;2022-12-11T10:46:01;35.03;;;15.98;;
22660;SDS011;11497;52.222;21.246;2022-12-11T10:48:30;36.20;;;15.23;;
22660;SDS011;11497;52.222;21.246;2022-12-11T10:51:03;29.98;;;14.13;;
22660;SDS011;11497;52.222;21.246;2022-12-11T10:56:01;33.33;;;15.23;;
22660;SDS011;11497;52.222;21.246;2022-12-11T10:58:29;37.38;;;16.90;;
22660;SDS011;11497;52.222;21.246;2022-12-11T11:06:41;39.08;;;16.92;;
22660;SDS011;11497;52.222;21.246;2022-12-11T11:09:26;36.80;;;17.00;;
22660;SDS011;11497;52.222;21.246;2022-12-11T11:11:57;35.95;;;16.48;;
22660;SDS011;11497;52.222;21.246;2022-12-11T11:14:33;32.95;;;15.85;;
22660;SDS011;11497;52.222;21.246;2022-12-11T11:17:01;30.85;;;13.95;;
22660;SDS011;11497;52.222;21.246;2022-12-11T11:19:30;31.98;;;14.02;;
22660;SDS011;11497;52.222;21.246;2022-12-11T11:22:04;28.88;;;14.23;;
22660;SDS011;11497;52.222;21.246;2022-12-11T11:24:35;30.35;;;14.10;;
22660;SDS011;11497;52.222;21.246;2022-12-11T11:27:12;37.30;;;15.45;;
22660;SDS011;11497;52.222;21.246;2022-12-11T11:29:54;35.20;;;15.05;;
22660;SDS011;11497;52.222;21.246;2022-12-11T11:32:32;29.58;;;13.32;;
22660;SDS011;11497;52.222;21.246;2022-12-11T11:37:40;35.22;;;15.60;;
22660;SDS011;11497;52.222;21.246;2022-12-11T11:40:21;33.70;;;15.18;;
22660;SDS011;11497;52.222;21.246;2022-12-11T11:48:43;30.70;;;15.32;;
22660;SDS011;11497;52.222;21.246;2022-12-11T11:51:38;27.30;;;12.85;;
22660;SDS011;11497;52.222;21.246;2022-12-11T11:57:28;30.77;;;15.07;;
22660;SDS011;11497;52.222;21.246;2022-12-11T12:00:02;28.35;;;13.90;;
22660;SDS011;11497;52.222;21.246;2022-12-11T12:02:39;29.95;;;14.32;;
22660;SDS011;11497;52.222;21.246;2022-12-11T12:05:11;30.52;;;14.13;;
22660;SDS011;11497;52.222;21.246;2022-12-11T12:13:05;26.90;;;13.63;;
22660;SDS011;11497;52.222;21.246;2022-12-11T12:16:27;30.00;;;14.30;;
22660;SDS011;11497;52.222;21.246;2022-12-11T12:22:06;30.73;;;13.60;;
22660;SDS011;11497;52.222;21.246;2022-12-11T12:30:50;30.88;;;14.25;;
22660;SDS011;11497;52.222;21.246;2022-12-11T12:45:28;29.65;;;13.27;;
22660;SDS011;11497;52.222;21.246;2022-12-11T12:48:03;31.73;;;13.63;;
22660;SDS011;11497;52.222;21.246;2022-12-11T12:50:36;28.45;;;13.48;;
22660;SDS011;11497;52.222;21.246;2022-12-11T12:53:12;31.35;;;14.27;;
22660;SDS011;11497;52.222;21.246;2022-12-11T12:55:45;31.63;;;13.15;;
22660;SDS011;11497;52.222;21.246;2022-12-11T13:01:28;30.42;;;12.93;;
22660;SDS011;11497;52.222;21.246;2022-12-11T13:06:35;31.77;;;13.70;;
22660;SDS011;11497;52.222;21.246;2022-12-11T13:11:45;26.52;;;13.43;;
22660;SDS011;11497;52.222;21.246;2022-12-11T13:16:50;23.40;;;12.35;;
22660;SDS011;11497;52.222;21.246;2022-12-11T13:19:30;28.30;;;13.77;;
22660;SDS011;11497;52.222;21.246;2022-12-11T13:27:26;30.90;;;13.95;;
22660;SDS011;11497;52.222;21.246;2022-12-11T13:32:41;25.33;;;12.63;;
22660;SDS011;11497;52.222;21.246;2022-12-11T13:35:19;28.13;;;13.90;;
22660;SDS011;11497;52.222;21.246;2022-12-11T13:37:48;30.20;;;14.13;;
22660;SDS011;11497;52.222;21.246;2022-12-11T13:40:19;33.80;;;16.33;;
22660;SDS011;11497;52.222;21.246;2022-12-11T13:43:00;30.42;;;14.63;;
22660;SDS011;11497;52.222;21.246;2022-12-11T13:45:59;31.50;;;14.88;;
22660;SDS011;11497;52.222;21.246;2022-12-11T13:48:34;31.20;;;15.23;;
22660;SDS011;11497;52.222;21.246;2022-12-11T13:51:13;33.35;;;15.88;;
22660;SDS011;11497;52.222;21.246;2022-12-11T13:53:47;36.80;;;16.52;;
22660;SDS011;11497;52.222;21.246;2022-12-11T13:56:27;37.20;;;16.55;;
22660;SDS011;11497;52.222;21.246;2022-12-11T13:58:55;34.75;;;16.60;;
22660;SDS011;11497;52.222;21.246;2022-12-11T14:01:24;36.05;;;17.20;;
22660;SDS011;11497;52.222;21.246;2022-12-11T14:03:56;38.22;;;17.95;;
22660;SDS011;11497;52.222;21.246;2022-12-11T14:06:30;37.60;;;16.55;;
22660;SDS011;11497;52.222;21.246;2022-12-11T14:09:00;38.30;;;17.35;;
22660;SDS011;11497;52.222;21.246;2022-12-11T14:11:37;38.85;;;17.35;;
22660;SDS011;11497;52.222;21.246;2022-12-11T14:14:21;36.92;;;17.50;;
22660;SDS011;11497;52.222;21.246;2022-12-11T14:16:54;32.25;;;15.43;;
22660;SDS011;11497;52.222;21.246;2022-12-11T14:19:23;32.10;;;15.38;;
22660;SDS011;11497;52.222;21.246;2022-12-11T14:21:54;35.75;;;15.40;;
22660;SDS011;11497;52.222;21.246;2022-12-11T14:24:27;30.85;;;15.45;;
22660;SDS011;11497;52.222;21.246;2022-12-11T14:26:56;29.40;;;15.15;;
22660;SDS011;11497;52.222;21.246;2022-12-11T14:29:25;29.20;;;15.10;;
22660;SDS011;11497;52.222;21.246;2022-12-11T14:32:01;30.73;;;14.93;;
22660;SDS011;11497;52.222;21.246;2022-12-11T14:34:36;30.73;;;14.82;;
22660;SDS011;11497;52.222;21.246;2022-12-11T14:37:09;31.42;;;15.95;;
22660;SDS011;11497;52.222;21.246;2022-12-11T14:39:58;31.90;;;14.85;;
22660;SDS011;11497;52.222;21.246;2022-12-11T14:42:33;34.60;;;15.88;;
22660;SDS011;11497;52.222;21.246;2022-12-11T14:47:49;32.25;;;15.05;;
22660;SDS011;11497;52.222;21.246;2022-12-11T14:50:21;29.52;;;13.18;;
22660;SDS011;11497;52.222;21.246;2022-12-11T14:52:58;30.02;;;15.18;;
22660;SDS011;11497;52.222;21.246;2022-12-11T14:55:30;30.17;;;14.02;;
22660;SDS011;11497;52.222;21.246;2022-12-11T14:58:04;26.98;;;13.82;;
22660;SDS011;11497;52.222;21.246;2022-12-11T15:00:40;26.70;;;14.30;;
22660;SDS011;11497;52.222;21.246;2022-12-11T15:08:22;30.17;;;14.82;;
22660;SDS011;11497;52.222;21.246;2022-12-11T15:13:38;24.13;;;12.70;;
22660;SDS011;11497;52.222;21.246;2022-12-11T15:16:22;27.33;;;13.18;;
22660;SDS011;11497;52.222;21.246;2022-12-11T15:18:52;30.63;;;14.93;;
22660;SDS011;11497;52.222;21.246;2022-12-11T15:21:28;24.90;;;12.90;;
22660;SDS011;11497;52.222;21.246;2022-12-11T15:24:01;27.20;;;12.73;;
22660;SDS011;11497;52.222;21.246;2022-12-11T15:26:38;28.33;;;13.35;;
22660;SDS011;11497;52.222;21.246;2022-12-11T15:34:52;22.60;;;12.05;;
22660;SDS011;11497;52.222;21.246;2022-12-11T15:37:29;22.67;;;12.27;;
22660;SDS011;11497;52.222;21.246;2022-12-11T15:39:59;26.23;;;12.52;;
22660;SDS011;11497;52.222;21.246;2022-12-11T15:42:41;27.67;;;14.32;;
22660;SDS011;11497;52.222;21.246;2022-12-11T15:45:16;24.15;;;12.73;;
22660;SDS011;11497;52.222;21.246;2022-12-11T15:47:47;26.75;;;13.68;;
22660;SDS011;11497;52.222;21.246;2022-12-11T15:50:17;31.20;;;14.00;;
22660;SDS011;11497;52.222;21.246;2022-12-11T15:52:51;24.35;;;12.43;;
22660;SDS011;11497;52.222;21.246;2022-12-11T15:55:21;26.73;;;13.77;;
22660;SDS011;11497;52.222;21.246;2022-12-11T16:00:20;25.58;;;13.35;;
22660;SDS011;11497;52.222;21.246;2022-12-11T16:02:49;23.88;;;12.55;;
22660;SDS011;11497;52.222;21.246;2022-12-11T16:05:20;26.48;;;12.52;;
22660;SDS011;11497;52.222;21.246;2022-12-11T16:07:48;24.17;;;12.88;;
22660;SDS011;11497;52.222;21.246;2022-12-11T16:10:18;29.60;;;14.40;;
22660;SDS011;11497;52.222;21.246;2022-12-11T16:12:47;29.25;;;14.55;;
22660;SDS011;11497;52.222;21.246;2022-12-11T16:15:15;32.95;;;14.80;;
22660;SDS011;11497;52.222;21.246;2022-12-11T16:17:57;34.83;;;15.90;;
22660;SDS011;11497;52.222;21.246;2022-12-11T16:20:34;32.15;;;15.45;;
22660;SDS011;11497;52.222;21.246;2022-12-11T16:23:03;32.80;;;15.32;;
22660;SDS011;11497;52.222;21.246;2022-12-11T16:25:31;36.33;;;16.67;;
22660;SDS011;11497;52.222;21.246;2022-12-11T16:28:00;32.20;;;16.40;;
22660;SDS011;11497;52.222;21.246;2022-12-11T16:30:28;34.75;;;16.05;;
22660;SDS011;11497;52.222;21.246;2022-12-11T16:32:56;37.15;;;15.90;;
22660;SDS011;11497;52.222;21.246;2022-12-11T16:35:24;36.00;;;16.58;;
22660;SDS011;11497;52.222;21.246;2022-12-11T16:37:52;30.20;;;14.65;;
22660;SDS011;11497;52.222;21.246;2022-12-11T16:40:21;30.80;;;15.05;;
22660;SDS011;11497;52.222;21.246;2022-12-11T16:42:50;29.08;;;15.00;;
22660;SDS011;11497;52.222;21.246;2022-12-11T16:45:19;28.38;;;14.30;;
22660;SDS011;11497;52.222;21.246;2022-12-11T16:47:49;28.08;;;15.02;;